sensor_id;sensor_type;location;lat;lon;timestamp;P1;durP1;ratioP1;P2;durP2;ratioP2
23169;SDS011;11753;43.144;24.714;2022-07-06T00:00:15;10.60;;;8.18;;
23169;SDS011;11753;43.144;24.714;2022-07-06T00:01:16;9.88;;;7.70;;
23169;SDS011;11753;43.144;24.714;2022-07-06T00:02:19;10.13;;;8.30;;
23169;SDS011;11753;43.144;24.714;2022-07-06T00:03:21;9.00;;;7.70;;
23169;SDS011;11753;43.144;24.714;2022-07-06T00:04:22;9.23;;;7.25;;
23169;SDS011;11753;43.144;24.714;2022-07-06T00:05:23;10.80;;;7.72;;
23169;SDS011;11753;43.144;24.714;2022-07-06T00:06:23;12.25;;;8.13;;
23169;SDS011;11753;43.144;24.714;2022-07-06T00:07:24;9.27;;;7.70;;
23169;SDS011;11753;43.144;24.714;2022-07-06T00:08:25;8.68;;;7.75;;
23169;SDS011;11753;43.144;24.714;2022-07-06T00:09:25;10.52;;;7.63;;
23169;SDS011;11753;43.144;24.714;2022-07-06T00:10:26;9.55;;;7.40;;
23169;SDS011;11753;43.144;24.714;2022-07-06T00:11:27;11.30;;;7.50;;
23169;SDS011;11753;43.144;24.714;2022-07-06T00:12:28;9.23;;;8.18;;
23169;SDS011;11753;43.144;24.714;2022-07-06T00:13:29;9.75;;;8.05;;
23169;SDS011;11753;43.144;24.714;2022-07-06T00:14:29;10.45;;;8.32;;
23169;SDS011;11753;43.144;24.714;2022-07-06T00:15:30;10.43;;;7.63;;
23169;SDS011;11753;43.144;24.714;2022-07-06T00:16:31;8.43;;;7.43;;
23169;SDS011;11753;43.144;24.714;2022-07-06T00:17:32;11.13;;;7.75;;
23169;SDS011;11753;43.144;24.714;2022-07-06T00:18:32;11.73;;;8.43;;
23169;SDS011;11753;43.144;24.714;2022-07-06T00:19:34;10.30;;;7.97;;
23169;SDS011;11753;43.144;24.714;2022-07-06T00:20:35;9.88;;;7.45;;
23169;SDS011;11753;43.144;24.714;2022-07-06T00:21:36;10.73;;;7.88;;
23169;SDS011;11753;43.144;24.714;2022-07-06T00:22:36;9.07;;;7.80;;
23169;SDS011;11753;43.144;24.714;2022-07-06T00:23:37;8.75;;;7.70;;
23169;SDS011;11753;43.144;24.714;2022-07-06T00:24:38;9.30;;;7.18;;
23169;SDS011;11753;43.144;24.714;2022-07-06T00:25:39;9.25;;;6.85;;
23169;SDS011;11753;43.144;24.714;2022-07-06T00:26:40;8.90;;;7.20;;
23169;SDS011;11753;43.144;24.714;2022-07-06T00:27:41;12.40;;;7.25;;
23169;SDS011;11753;43.144;24.714;2022-07-06T00:28:42;8.35;;;7.28;;
23169;SDS011;11753;43.144;24.714;2022-07-06T00:29:43;11.68;;;7.03;;
23169;SDS011;11753;43.144;24.714;2022-07-06T00:30:44;8.55;;;6.88;;
23169;SDS011;11753;43.144;24.714;2022-07-06T00:31:45;9.50;;;7.68;;
23169;SDS011;11753;43.144;24.714;2022-07-06T00:32:46;10.07;;;7.50;;
23169;SDS011;11753;43.144;24.714;2022-07-06T00:33:47;10.05;;;7.45;;
23169;SDS011;11753;43.144;24.714;2022-07-06T00:34:48;11.15;;;7.93;;
23169;SDS011;11753;43.144;24.714;2022-07-06T00:35:49;9.95;;;7.60;;
23169;SDS011;11753;43.144;24.714;2022-07-06T00:36:50;10.27;;;7.30;;
23169;SDS011;11753;43.144;24.714;2022-07-06T00:37:51;12.13;;;8.13;;
23169;SDS011;11753;43.144;24.714;2022-07-06T00:38:53;10.10;;;7.78;;
23169;SDS011;11753;43.144;24.714;2022-07-06T00:39:54;10.13;;;8.23;;
23169;SDS011;11753;43.144;24.714;2022-07-06T00:40:55;10.02;;;7.45;;
23169;SDS011;11753;43.144;24.714;2022-07-06T00:41:56;10.70;;;7.07;;
23169;SDS011;11753;43.144;24.714;2022-07-06T00:42:57;8.85;;;7.80;;
23169;SDS011;11753;43.144;24.714;2022-07-06T00:43:59;10.68;;;7.68;;
23169;SDS011;11753;43.144;24.714;2022-07-06T00:45:00;9.77;;;7.43;;
23169;SDS011;11753;43.144;24.714;2022-07-06T00:46:00;9.70;;;7.72;;
23169;SDS011;11753;43.144;24.714;2022-07-06T00:47:01;8.25;;;7.00;;
23169;SDS011;11753;43.144;24.714;2022-07-06T00:48:06;10.07;;;7.85;;
23169;SDS011;11753;43.144;24.714;2022-07-06T00:49:07;11.20;;;8.25;;
23169;SDS011;11753;43.144;24.714;2022-07-06T00:50:27;9.25;;;7.38;;
23169;SDS011;11753;43.144;24.714;2022-07-06T00:51:30;12.95;;;7.95;;
23169;SDS011;11753;43.144;24.714;2022-07-06T00:52:32;10.43;;;7.50;;
23169;SDS011;11753;43.144;24.714;2022-07-06T00:53:33;10.23;;;7.13;;
23169;SDS011;11753;43.144;24.714;2022-07-06T00:54:35;9.68;;;7.50;;
23169;SDS011;11753;43.144;24.714;2022-07-06T00:55:38;11.00;;;7.72;;
23169;SDS011;11753;43.144;24.714;2022-07-06T00:56:42;10.20;;;7.72;;
23169;SDS011;11753;43.144;24.714;2022-07-06T00:57:43;9.43;;;7.55;;
23169;SDS011;11753;43.144;24.714;2022-07-06T00:58:44;8.63;;;6.85;;
23169;SDS011;11753;43.144;24.714;2022-07-06T00:59:45;10.35;;;7.97;;
23169;SDS011;11753;43.144;24.714;2022-07-06T01:00:46;12.35;;;8.20;;
23169;SDS011;11753;43.144;24.714;2022-07-06T01:01:47;11.50;;;7.75;;
23169;SDS011;11753;43.144;24.714;2022-07-06T01:02:48;10.88;;;7.70;;
23169;SDS011;11753;43.144;24.714;2022-07-06T01:03:49;9.73;;;7.10;;
23169;SDS011;11753;43.144;24.714;2022-07-06T01:04:50;8.25;;;7.30;;
23169;SDS011;11753;43.144;24.714;2022-07-06T01:05:52;12.27;;;8.43;;
23169;SDS011;11753;43.144;24.714;2022-07-06T01:06:53;10.68;;;7.72;;
23169;SDS011;11753;43.144;24.714;2022-07-06T01:07:54;10.02;;;8.15;;
23169;SDS011;11753;43.144;24.714;2022-07-06T01:08:56;11.80;;;8.13;;
23169;SDS011;11753;43.144;24.714;2022-07-06T01:09:57;7.93;;;7.10;;
23169;SDS011;11753;43.144;24.714;2022-07-06T01:10:58;10.20;;;7.45;;
23169;SDS011;11753;43.144;24.714;2022-07-06T01:11:59;10.23;;;7.55;;
23169;SDS011;11753;43.144;24.714;2022-07-06T01:13:00;8.63;;;7.05;;
23169;SDS011;11753;43.144;24.714;2022-07-06T01:14:01;9.50;;;8.15;;
23169;SDS011;11753;43.144;24.714;2022-07-06T01:15:03;10.18;;;7.82;;
23169;SDS011;11753;43.144;24.714;2022-07-06T01:16:06;11.05;;;7.85;;
23169;SDS011;11753;43.144;24.714;2022-07-06T01:17:07;12.20;;;7.65;;
23169;SDS011;11753;43.144;24.714;2022-07-06T01:18:09;9.70;;;7.68;;
23169;SDS011;11753;43.144;24.714;2022-07-06T01:19:12;8.82;;;7.35;;
23169;SDS011;11753;43.144;24.714;2022-07-06T01:20:19;8.98;;;6.95;;
23169;SDS011;11753;43.144;24.714;2022-07-06T01:21:21;9.70;;;8.00;;
23169;SDS011;11753;43.144;24.714;2022-07-06T01:22:23;9.80;;;8.07;;
23169;SDS011;11753;43.144;24.714;2022-07-06T01:23:24;7.97;;;6.68;;
23169;SDS011;11753;43.144;24.714;2022-07-06T01:24:25;9.70;;;7.63;;
23169;SDS011;11753;43.144;24.714;2022-07-06T01:25:26;7.97;;;7.18;;
23169;SDS011;11753;43.144;24.714;2022-07-06T01:26:27;9.32;;;7.50;;
23169;SDS011;11753;43.144;24.714;2022-07-06T01:27:28;9.85;;;7.35;;
23169;SDS011;11753;43.144;24.714;2022-07-06T01:28:30;9.20;;;7.35;;
23169;SDS011;11753;43.144;24.714;2022-07-06T01:29:34;9.50;;;7.10;;
23169;SDS011;11753;43.144;24.714;2022-07-06T01:30:35;11.95;;;7.68;;
23169;SDS011;11753;43.144;24.714;2022-07-06T01:31:41;9.38;;;7.45;;
23169;SDS011;11753;43.144;24.714;2022-07-06T01:32:46;9.52;;;7.53;;
23169;SDS011;11753;43.144;24.714;2022-07-06T01:33:48;9.10;;;7.00;;
23169;SDS011;11753;43.144;24.714;2022-07-06T01:34:51;8.35;;;7.15;;
23169;SDS011;11753;43.144;24.714;2022-07-06T01:35:52;8.77;;;7.53;;
23169;SDS011;11753;43.144;24.714;2022-07-06T01:36:53;10.07;;;8.00;;
23169;SDS011;11753;43.144;24.714;2022-07-06T01:37:55;10.20;;;8.27;;
23169;SDS011;11753;43.144;24.714;2022-07-06T01:38:56;8.85;;;7.75;;
23169;SDS011;11753;43.144;24.714;2022-07-06T01:40:00;10.23;;;7.53;;
23169;SDS011;11753;43.144;24.714;2022-07-06T01:41:04;9.23;;;7.35;;
23169;SDS011;11753;43.144;24.714;2022-07-06T01:42:06;9.98;;;7.35;;
23169;SDS011;11753;43.144;24.714;2022-07-06T01:43:07;10.32;;;7.03;;
23169;SDS011;11753;43.144;24.714;2022-07-06T01:44:08;7.97;;;7.13;;
23169;SDS011;11753;43.144;24.714;2022-07-06T01:45:09;9.98;;;8.05;;
23169;SDS011;11753;43.144;24.714;2022-07-06T01:46:11;11.15;;;7.93;;
23169;SDS011;11753;43.144;24.714;2022-07-06T01:47:12;10.18;;;7.18;;
23169;SDS011;11753;43.144;24.714;2022-07-06T01:48:13;10.50;;;7.43;;
23169;SDS011;11753;43.144;24.714;2022-07-06T01:49:14;8.88;;;6.95;;
23169;SDS011;11753;43.144;24.714;2022-07-06T01:50:15;8.73;;;7.50;;
23169;SDS011;11753;43.144;24.714;2022-07-06T01:51:16;10.10;;;7.90;;
23169;SDS011;11753;43.144;24.714;2022-07-06T01:52:17;9.48;;;7.22;;
23169;SDS011;11753;43.144;24.714;2022-07-06T01:53:17;8.73;;;7.47;;
23169;SDS011;11753;43.144;24.714;2022-07-06T01:54:18;8.50;;;7.40;;
23169;SDS011;11753;43.144;24.714;2022-07-06T01:55:19;7.75;;;6.50;;
23169;SDS011;11753;43.144;24.714;2022-07-06T01:56:20;8.90;;;8.00;;
23169;SDS011;11753;43.144;24.714;2022-07-06T01:57:21;10.88;;;7.88;;
23169;SDS011;11753;43.144;24.714;2022-07-06T01:58:22;17.92;;;8.20;;
23169;SDS011;11753;43.144;24.714;2022-07-06T01:59:23;9.93;;;8.13;;
23169;SDS011;11753;43.144;24.714;2022-07-06T02:00:24;11.40;;;8.80;;
23169;SDS011;11753;43.144;24.714;2022-07-06T02:01:24;12.98;;;8.65;;
23169;SDS011;11753;43.144;24.714;2022-07-06T02:02:26;13.23;;;8.48;;
23169;SDS011;11753;43.144;24.714;2022-07-06T02:03:27;12.30;;;9.70;;
23169;SDS011;11753;43.144;24.714;2022-07-06T02:04:28;10.65;;;8.65;;
23169;SDS011;11753;43.144;24.714;2022-07-06T02:05:28;10.40;;;8.63;;
23169;SDS011;11753;43.144;24.714;2022-07-06T02:06:29;10.85;;;7.82;;
23169;SDS011;11753;43.144;24.714;2022-07-06T02:07:29;10.80;;;7.75;;
23169;SDS011;11753;43.144;24.714;2022-07-06T02:08:30;8.40;;;7.57;;
23169;SDS011;11753;43.144;24.714;2022-07-06T02:09:31;9.82;;;7.93;;
23169;SDS011;11753;43.144;24.714;2022-07-06T02:10:32;11.65;;;8.45;;
23169;SDS011;11753;43.144;24.714;2022-07-06T02:11:32;10.65;;;7.43;;
23169;SDS011;11753;43.144;24.714;2022-07-06T02:12:33;11.95;;;8.18;;
23169;SDS011;11753;43.144;24.714;2022-07-06T02:13:35;12.45;;;7.90;;
23169;SDS011;11753;43.144;24.714;2022-07-06T02:14:37;9.50;;;7.70;;
23169;SDS011;11753;43.144;24.714;2022-07-06T02:15:37;10.77;;;7.75;;
23169;SDS011;11753;43.144;24.714;2022-07-06T02:16:38;9.88;;;7.90;;
23169;SDS011;11753;43.144;24.714;2022-07-06T02:17:39;13.93;;;7.72;;
23169;SDS011;11753;43.144;24.714;2022-07-06T02:18:40;10.48;;;7.57;;
23169;SDS011;11753;43.144;24.714;2022-07-06T02:19:41;10.80;;;8.35;;
23169;SDS011;11753;43.144;24.714;2022-07-06T02:20:42;11.82;;;9.00;;
23169;SDS011;11753;43.144;24.714;2022-07-06T02:21:43;10.75;;;9.15;;
23169;SDS011;11753;43.144;24.714;2022-07-06T02:22:44;13.45;;;8.40;;
23169;SDS011;11753;43.144;24.714;2022-07-06T02:23:45;11.82;;;8.40;;
23169;SDS011;11753;43.144;24.714;2022-07-06T02:24:46;12.10;;;9.43;;
23169;SDS011;11753;43.144;24.714;2022-07-06T02:25:47;13.18;;;8.52;;
23169;SDS011;11753;43.144;24.714;2022-07-06T02:26:48;12.15;;;8.88;;
23169;SDS011;11753;43.144;24.714;2022-07-06T02:27:49;14.45;;;9.05;;
23169;SDS011;11753;43.144;24.714;2022-07-06T02:28:50;12.18;;;8.07;;
23169;SDS011;11753;43.144;24.714;2022-07-06T02:29:51;11.10;;;8.85;;
23169;SDS011;11753;43.144;24.714;2022-07-06T02:30:52;12.77;;;9.40;;
23169;SDS011;11753;43.144;24.714;2022-07-06T02:31:53;10.02;;;8.68;;
23169;SDS011;11753;43.144;24.714;2022-07-06T02:32:54;10.82;;;8.32;;
23169;SDS011;11753;43.144;24.714;2022-07-06T02:33:55;12.25;;;8.10;;
23169;SDS011;11753;43.144;24.714;2022-07-06T02:34:55;13.13;;;8.32;;
23169;SDS011;11753;43.144;24.714;2022-07-06T02:35:56;11.30;;;8.52;;
23169;SDS011;11753;43.144;24.714;2022-07-06T02:36:57;12.48;;;8.38;;
23169;SDS011;11753;43.144;24.714;2022-07-06T02:37:58;9.80;;;8.30;;
23169;SDS011;11753;43.144;24.714;2022-07-06T02:38:59;11.65;;;8.68;;
23169;SDS011;11753;43.144;24.714;2022-07-06T02:40:00;10.50;;;8.52;;
23169;SDS011;11753;43.144;24.714;2022-07-06T02:41:01;9.68;;;8.00;;
23169;SDS011;11753;43.144;24.714;2022-07-06T02:42:02;9.73;;;7.82;;
23169;SDS011;11753;43.144;24.714;2022-07-06T02:43:03;11.63;;;8.20;;
23169;SDS011;11753;43.144;24.714;2022-07-06T02:44:04;11.40;;;8.55;;
23169;SDS011;11753;43.144;24.714;2022-07-06T02:45:05;12.52;;;8.65;;
23169;SDS011;11753;43.144;24.714;2022-07-06T02:46:06;9.80;;;8.23;;
23169;SDS011;11753;43.144;24.714;2022-07-06T02:47:07;14.10;;;8.00;;
23169;SDS011;11753;43.144;24.714;2022-07-06T02:48:08;13.32;;;8.73;;
23169;SDS011;11753;43.144;24.714;2022-07-06T02:49:09;13.45;;;9.13;;
23169;SDS011;11753;43.144;24.714;2022-07-06T02:50:09;13.82;;;9.77;;
23169;SDS011;11753;43.144;24.714;2022-07-06T02:51:10;9.85;;;8.52;;
23169;SDS011;11753;43.144;24.714;2022-07-06T02:52:10;10.18;;;8.27;;
23169;SDS011;11753;43.144;24.714;2022-07-06T02:53:11;13.05;;;8.43;;
23169;SDS011;11753;43.144;24.714;2022-07-06T02:54:12;10.70;;;8.38;;
23169;SDS011;11753;43.144;24.714;2022-07-06T02:55:12;11.93;;;9.63;;
23169;SDS011;11753;43.144;24.714;2022-07-06T02:56:13;14.65;;;10.13;;
23169;SDS011;11753;43.144;24.714;2022-07-06T02:57:14;13.20;;;9.07;;
23169;SDS011;11753;43.144;24.714;2022-07-06T02:58:15;11.57;;;9.30;;
23169;SDS011;11753;43.144;24.714;2022-07-06T02:59:16;10.55;;;8.48;;
23169;SDS011;11753;43.144;24.714;2022-07-06T03:00:17;10.02;;;8.80;;
23169;SDS011;11753;43.144;24.714;2022-07-06T03:01:18;11.50;;;9.35;;
23169;SDS011;11753;43.144;24.714;2022-07-06T03:02:19;11.75;;;9.30;;
23169;SDS011;11753;43.144;24.714;2022-07-06T03:03:20;11.85;;;9.00;;
23169;SDS011;11753;43.144;24.714;2022-07-06T03:04:21;10.25;;;8.57;;
23169;SDS011;11753;43.144;24.714;2022-07-06T03:05:22;10.85;;;8.70;;
23169;SDS011;11753;43.144;24.714;2022-07-06T03:06:23;12.70;;;9.25;;
23169;SDS011;11753;43.144;24.714;2022-07-06T03:07:24;12.38;;;9.27;;
23169;SDS011;11753;43.144;24.714;2022-07-06T03:08:25;14.25;;;9.45;;
23169;SDS011;11753;43.144;24.714;2022-07-06T03:09:26;12.48;;;9.40;;
23169;SDS011;11753;43.144;24.714;2022-07-06T03:10:27;12.02;;;8.88;;
23169;SDS011;11753;43.144;24.714;2022-07-06T03:11:28;12.70;;;9.20;;
23169;SDS011;11753;43.144;24.714;2022-07-06T03:12:29;11.23;;;9.15;;
23169;SDS011;11753;43.144;24.714;2022-07-06T03:13:30;11.50;;;8.63;;
23169;SDS011;11753;43.144;24.714;2022-07-06T03:14:31;11.57;;;8.77;;
23169;SDS011;11753;43.144;24.714;2022-07-06T03:15:32;11.85;;;9.20;;
23169;SDS011;11753;43.144;24.714;2022-07-06T03:16:33;10.48;;;8.30;;
23169;SDS011;11753;43.144;24.714;2022-07-06T03:17:34;10.60;;;8.60;;
23169;SDS011;11753;43.144;24.714;2022-07-06T03:18:34;9.95;;;8.75;;
23169;SDS011;11753;43.144;24.714;2022-07-06T03:19:35;10.32;;;8.05;;
23169;SDS011;11753;43.144;24.714;2022-07-06T03:20:37;10.98;;;8.57;;
23169;SDS011;11753;43.144;24.714;2022-07-06T03:21:38;11.35;;;8.15;;
23169;SDS011;11753;43.144;24.714;2022-07-06T03:22:39;10.75;;;8.25;;
23169;SDS011;11753;43.144;24.714;2022-07-06T03:23:40;12.02;;;7.85;;
23169;SDS011;11753;43.144;24.714;2022-07-06T03:24:41;10.73;;;9.23;;
23169;SDS011;11753;43.144;24.714;2022-07-06T03:25:42;12.57;;;9.48;;
23169;SDS011;11753;43.144;24.714;2022-07-06T03:26:43;10.82;;;8.32;;
23169;SDS011;11753;43.144;24.714;2022-07-06T03:27:43;8.38;;;7.45;;
23169;SDS011;11753;43.144;24.714;2022-07-06T03:28:44;9.90;;;7.70;;
23169;SDS011;11753;43.144;24.714;2022-07-06T03:29:45;11.35;;;7.88;;
23169;SDS011;11753;43.144;24.714;2022-07-06T03:30:46;10.80;;;9.05;;
23169;SDS011;11753;43.144;24.714;2022-07-06T03:31:47;12.85;;;8.40;;
23169;SDS011;11753;43.144;24.714;2022-07-06T03:32:48;10.85;;;8.30;;
23169;SDS011;11753;43.144;24.714;2022-07-06T03:33:49;10.07;;;8.73;;
23169;SDS011;11753;43.144;24.714;2022-07-06T03:34:50;11.52;;;8.25;;
23169;SDS011;11753;43.144;24.714;2022-07-06T03:35:51;10.85;;;7.80;;
23169;SDS011;11753;43.144;24.714;2022-07-06T03:36:52;10.60;;;8.13;;
23169;SDS011;11753;43.144;24.714;2022-07-06T03:37:53;12.57;;;8.00;;
23169;SDS011;11753;43.144;24.714;2022-07-06T03:38:53;12.32;;;8.48;;
23169;SDS011;11753;43.144;24.714;2022-07-06T03:39:54;10.50;;;8.30;;
23169;SDS011;11753;43.144;24.714;2022-07-06T03:40:55;10.70;;;8.32;;
23169;SDS011;11753;43.144;24.714;2022-07-06T03:41:56;10.63;;;8.27;;
23169;SDS011;11753;43.144;24.714;2022-07-06T03:42:57;10.63;;;8.15;;
23169;SDS011;11753;43.144;24.714;2022-07-06T03:43:58;9.48;;;8.18;;
23169;SDS011;11753;43.144;24.714;2022-07-06T03:44:58;10.38;;;7.88;;
23169;SDS011;11753;43.144;24.714;2022-07-06T03:45:59;10.52;;;8.32;;
23169;SDS011;11753;43.144;24.714;2022-07-06T03:47:00;11.13;;;8.40;;
23169;SDS011;11753;43.144;24.714;2022-07-06T03:48:01;11.23;;;7.90;;
23169;SDS011;11753;43.144;24.714;2022-07-06T03:49:01;10.90;;;8.02;;
23169;SDS011;11753;43.144;24.714;2022-07-06T03:50:02;8.88;;;7.97;;
23169;SDS011;11753;43.144;24.714;2022-07-06T03:51:03;10.20;;;7.70;;
23169;SDS011;11753;43.144;24.714;2022-07-06T03:52:04;8.80;;;7.90;;
23169;SDS011;11753;43.144;24.714;2022-07-06T03:53:04;9.52;;;7.95;;
23169;SDS011;11753;43.144;24.714;2022-07-06T03:54:05;11.15;;;7.53;;
23169;SDS011;11753;43.144;24.714;2022-07-06T03:55:09;7.95;;;6.85;;
23169;SDS011;11753;43.144;24.714;2022-07-06T03:56:11;8.73;;;7.00;;
23169;SDS011;11753;43.144;24.714;2022-07-06T03:57:33;10.90;;;7.72;;
23169;SDS011;11753;43.144;24.714;2022-07-06T03:58:33;10.65;;;7.90;;
23169;SDS011;11753;43.144;24.714;2022-07-06T03:59:35;11.68;;;7.65;;
23169;SDS011;11753;43.144;24.714;2022-07-06T04:00:36;8.20;;;7.05;;
23169;SDS011;11753;43.144;24.714;2022-07-06T04:01:36;9.68;;;7.70;;
23169;SDS011;11753;43.144;24.714;2022-07-06T04:02:37;9.23;;;7.57;;
23169;SDS011;11753;43.144;24.714;2022-07-06T04:03:38;10.13;;;7.57;;
23169;SDS011;11753;43.144;24.714;2022-07-06T04:04:38;9.73;;;7.45;;
23169;SDS011;11753;43.144;24.714;2022-07-06T04:05:39;12.13;;;7.55;;
23169;SDS011;11753;43.144;24.714;2022-07-06T04:06:39;8.55;;;7.25;;
23169;SDS011;11753;43.144;24.714;2022-07-06T04:07:40;7.97;;;7.10;;
23169;SDS011;11753;43.144;24.714;2022-07-06T04:08:41;8.82;;;7.45;;
23169;SDS011;11753;43.144;24.714;2022-07-06T04:09:42;8.85;;;6.88;;
23169;SDS011;11753;43.144;24.714;2022-07-06T04:10:43;10.77;;;7.70;;
23169;SDS011;11753;43.144;24.714;2022-07-06T04:11:44;10.18;;;7.40;;
23169;SDS011;11753;43.144;24.714;2022-07-06T04:12:45;8.10;;;7.30;;
23169;SDS011;11753;43.144;24.714;2022-07-06T04:13:46;7.78;;;6.78;;
23169;SDS011;11753;43.144;24.714;2022-07-06T04:14:47;10.15;;;7.95;;
23169;SDS011;11753;43.144;24.714;2022-07-06T04:15:48;8.43;;;7.53;;
23169;SDS011;11753;43.144;24.714;2022-07-06T04:16:52;9.15;;;7.78;;
23169;SDS011;11753;43.144;24.714;2022-07-06T04:17:53;9.23;;;7.28;;
23169;SDS011;11753;43.144;24.714;2022-07-06T04:18:53;8.95;;;7.57;;
23169;SDS011;11753;43.144;24.714;2022-07-06T04:19:54;10.38;;;7.68;;
23169;SDS011;11753;43.144;24.714;2022-07-06T04:20:55;11.05;;;7.13;;
23169;SDS011;11753;43.144;24.714;2022-07-06T04:21:57;11.18;;;7.88;;
23169;SDS011;11753;43.144;24.714;2022-07-06T04:22:58;11.52;;;8.20;;
23169;SDS011;11753;43.144;24.714;2022-07-06T04:23:59;9.90;;;7.82;;
23169;SDS011;11753;43.144;24.714;2022-07-06T04:25:00;9.48;;;7.93;;
23169;SDS011;11753;43.144;24.714;2022-07-06T04:26:01;12.68;;;8.65;;
23169;SDS011;11753;43.144;24.714;2022-07-06T04:27:02;10.57;;;7.53;;
23169;SDS011;11753;43.144;24.714;2022-07-06T04:28:04;13.43;;;7.88;;
23169;SDS011;11753;43.144;24.714;2022-07-06T04:29:05;10.27;;;7.53;;
23169;SDS011;11753;43.144;24.714;2022-07-06T04:30:06;10.68;;;7.38;;
23169;SDS011;11753;43.144;24.714;2022-07-06T04:31:07;9.70;;;7.47;;
23169;SDS011;11753;43.144;24.714;2022-07-06T04:32:08;9.02;;;7.22;;
23169;SDS011;11753;43.144;24.714;2022-07-06T04:33:09;12.18;;;8.23;;
23169;SDS011;11753;43.144;24.714;2022-07-06T04:34:10;10.85;;;7.70;;
23169;SDS011;11753;43.144;24.714;2022-07-06T04:35:11;8.73;;;7.05;;
23169;SDS011;11753;43.144;24.714;2022-07-06T04:36:12;15.43;;;8.05;;
23169;SDS011;11753;43.144;24.714;2022-07-06T04:37:13;10.80;;;7.38;;
23169;SDS011;11753;43.144;24.714;2022-07-06T04:38:14;13.35;;;7.80;;
23169;SDS011;11753;43.144;24.714;2022-07-06T04:39:15;8.85;;;6.93;;
23169;SDS011;11753;43.144;24.714;2022-07-06T04:40:16;11.75;;;7.50;;
23169;SDS011;11753;43.144;24.714;2022-07-06T04:41:18;10.63;;;7.82;;
23169;SDS011;11753;43.144;24.714;2022-07-06T04:42:19;13.02;;;7.25;;
23169;SDS011;11753;43.144;24.714;2022-07-06T04:43:20;10.60;;;7.65;;
23169;SDS011;11753;43.144;24.714;2022-07-06T04:44:21;14.32;;;7.70;;
23169;SDS011;11753;43.144;24.714;2022-07-06T04:45:22;12.35;;;8.07;;
23169;SDS011;11753;43.144;24.714;2022-07-06T04:46:23;11.10;;;7.70;;
23169;SDS011;11753;43.144;24.714;2022-07-06T04:47:24;11.68;;;7.25;;
23169;SDS011;11753;43.144;24.714;2022-07-06T04:48:25;10.20;;;7.05;;
23169;SDS011;11753;43.144;24.714;2022-07-06T04:49:26;10.50;;;8.15;;
23169;SDS011;11753;43.144;24.714;2022-07-06T04:50:27;8.65;;;7.15;;
23169;SDS011;11753;43.144;24.714;2022-07-06T04:51:29;11.02;;;7.20;;
23169;SDS011;11753;43.144;24.714;2022-07-06T04:52:30;8.63;;;7.68;;
23169;SDS011;11753;43.144;24.714;2022-07-06T04:53:31;9.85;;;7.30;;
23169;SDS011;11753;43.144;24.714;2022-07-06T04:54:32;9.70;;;7.75;;
23169;SDS011;11753;43.144;24.714;2022-07-06T04:55:33;10.00;;;7.70;;
23169;SDS011;11753;43.144;24.714;2022-07-06T04:56:34;11.50;;;7.55;;
23169;SDS011;11753;43.144;24.714;2022-07-06T04:57:35;10.18;;;7.95;;
23169;SDS011;11753;43.144;24.714;2022-07-06T04:58:36;10.82;;;7.40;;
23169;SDS011;11753;43.144;24.714;2022-07-06T04:59:36;8.88;;;7.72;;
23169;SDS011;11753;43.144;24.714;2022-07-06T05:00:37;10.30;;;7.78;;
23169;SDS011;11753;43.144;24.714;2022-07-06T05:01:37;10.60;;;8.10;;
23169;SDS011;11753;43.144;24.714;2022-07-06T05:02:38;11.50;;;8.27;;
23169;SDS011;11753;43.144;24.714;2022-07-06T05:03:39;10.40;;;7.47;;
23169;SDS011;11753;43.144;24.714;2022-07-06T05:04:40;8.57;;;7.55;;
23169;SDS011;11753;43.144;24.714;2022-07-06T05:05:41;9.80;;;7.82;;
23169;SDS011;11753;43.144;24.714;2022-07-06T05:06:42;10.20;;;8.07;;
23169;SDS011;11753;43.144;24.714;2022-07-06T05:07:43;9.07;;;7.60;;
23169;SDS011;11753;43.144;24.714;2022-07-06T05:08:44;13.50;;;9.07;;
23169;SDS011;11753;43.144;24.714;2022-07-06T05:09:45;10.43;;;8.35;;
23169;SDS011;11753;43.144;24.714;2022-07-06T05:10:46;11.57;;;8.30;;
23169;SDS011;11753;43.144;24.714;2022-07-06T05:11:48;9.63;;;7.95;;
23169;SDS011;11753;43.144;24.714;2022-07-06T05:12:49;12.35;;;7.97;;
23169;SDS011;11753;43.144;24.714;2022-07-06T05:13:50;11.70;;;8.90;;
23169;SDS011;11753;43.144;24.714;2022-07-06T05:14:51;9.00;;;7.80;;
23169;SDS011;11753;43.144;24.714;2022-07-06T05:15:52;13.77;;;8.65;;
23169;SDS011;11753;43.144;24.714;2022-07-06T05:16:53;9.82;;;7.55;;
23169;SDS011;11753;43.144;24.714;2022-07-06T05:17:54;12.40;;;8.63;;
23169;SDS011;11753;43.144;24.714;2022-07-06T05:18:55;10.07;;;8.25;;
23169;SDS011;11753;43.144;24.714;2022-07-06T05:19:55;10.73;;;8.02;;
23169;SDS011;11753;43.144;24.714;2022-07-06T05:20:56;11.35;;;8.25;;
23169;SDS011;11753;43.144;24.714;2022-07-06T05:21:58;10.52;;;8.68;;
23169;SDS011;11753;43.144;24.714;2022-07-06T05:22:59;12.70;;;8.02;;
23169;SDS011;11753;43.144;24.714;2022-07-06T05:23:59;11.43;;;7.75;;
23169;SDS011;11753;43.144;24.714;2022-07-06T05:25:00;11.55;;;7.72;;
23169;SDS011;11753;43.144;24.714;2022-07-06T05:26:01;12.32;;;7.85;;
23169;SDS011;11753;43.144;24.714;2022-07-06T05:27:03;12.93;;;9.35;;
23169;SDS011;11753;43.144;24.714;2022-07-06T05:28:04;10.05;;;7.95;;
23169;SDS011;11753;43.144;24.714;2022-07-06T05:29:05;11.27;;;7.53;;
23169;SDS011;11753;43.144;24.714;2022-07-06T05:30:05;8.88;;;7.30;;
23169;SDS011;11753;43.144;24.714;2022-07-06T05:31:07;8.05;;;7.25;;
23169;SDS011;11753;43.144;24.714;2022-07-06T05:32:08;8.80;;;7.50;;
23169;SDS011;11753;43.144;24.714;2022-07-06T05:33:09;10.10;;;8.25;;
23169;SDS011;11753;43.144;24.714;2022-07-06T05:34:10;13.35;;;8.45;;
23169;SDS011;11753;43.144;24.714;2022-07-06T05:35:11;11.38;;;8.38;;
23169;SDS011;11753;43.144;24.714;2022-07-06T05:36:12;12.48;;;8.20;;
23169;SDS011;11753;43.144;24.714;2022-07-06T05:37:13;13.93;;;8.95;;
23169;SDS011;11753;43.144;24.714;2022-07-06T05:38:15;10.73;;;8.32;;
23169;SDS011;11753;43.144;24.714;2022-07-06T05:39:19;12.48;;;7.70;;
23169;SDS011;11753;43.144;24.714;2022-07-06T05:40:23;10.43;;;8.27;;
23169;SDS011;11753;43.144;24.714;2022-07-06T05:41:23;11.75;;;8.88;;
23169;SDS011;11753;43.144;24.714;2022-07-06T05:42:24;10.15;;;7.60;;
23169;SDS011;11753;43.144;24.714;2022-07-06T05:43:26;8.52;;;7.43;;
23169;SDS011;11753;43.144;24.714;2022-07-06T05:44:27;10.68;;;8.20;;
23169;SDS011;11753;43.144;24.714;2022-07-06T05:45:28;10.68;;;7.60;;
23169;SDS011;11753;43.144;24.714;2022-07-06T05:46:29;12.52;;;8.07;;
23169;SDS011;11753;43.144;24.714;2022-07-06T05:47:30;9.50;;;7.57;;
23169;SDS011;11753;43.144;24.714;2022-07-06T05:48:50;8.70;;;7.28;;
23169;SDS011;11753;43.144;24.714;2022-07-06T05:50:09;12.05;;;7.90;;
23169;SDS011;11753;43.144;24.714;2022-07-06T05:51:13;12.35;;;7.70;;
23169;SDS011;11753;43.144;24.714;2022-07-06T05:52:14;8.82;;;7.93;;
23169;SDS011;11753;43.144;24.714;2022-07-06T05:53:15;10.55;;;7.65;;
23169;SDS011;11753;43.144;24.714;2022-07-06T05:54:16;12.48;;;7.95;;
23169;SDS011;11753;43.144;24.714;2022-07-06T05:55:17;12.30;;;8.82;;
23169;SDS011;11753;43.144;24.714;2022-07-06T05:56:18;10.77;;;8.30;;
23169;SDS011;11753;43.144;24.714;2022-07-06T05:57:19;11.43;;;9.02;;
23169;SDS011;11753;43.144;24.714;2022-07-06T05:58:20;10.20;;;7.88;;
23169;SDS011;11753;43.144;24.714;2022-07-06T05:59:20;9.82;;;7.95;;
23169;SDS011;11753;43.144;24.714;2022-07-06T06:00:25;10.23;;;8.90;;